createdAt,value
2019-05-14T00:01:13.073Z,11.87
2019-05-14T00:03:51.422Z,11.80
2019-05-14T00:06:21.879Z,11.07
2019-05-14T00:08:54.132Z,11.80
2019-05-14T00:11:25.195Z,10.50
2019-05-14T00:13:56.833Z,10.83
2019-05-14T00:16:35.193Z,8.70
2019-05-14T00:19:02.257Z,8.83
2019-05-14T00:21:31.833Z,12.73
2019-05-14T00:24:06.067Z,13.27
2019-05-14T00:26:37.572Z,10.30
2019-05-14T00:29:13.326Z,11.20
2019-05-14T00:31:43.966Z,15.07
2019-05-14T00:34:17.451Z,10.13
2019-05-14T00:36:47.112Z,11.53
2019-05-14T00:39:25.614Z,11.27
2019-05-14T00:41:56.340Z,13.03
2019-05-14T00:44:33.952Z,10.40
2019-05-14T00:47:03.191Z,11.93
2019-05-14T00:49:34.855Z,11.20
2019-05-14T00:52:12.863Z,8.93
2019-05-14T00:54:45.627Z,9.80
2019-05-14T00:57:21.079Z,11.77
2019-05-14T00:59:46.810Z,9.97
2019-05-14T01:02:25.572Z,11.37
2019-05-14T01:04:54.121Z,10.93
2019-05-14T01:07:32.022Z,9.63
2019-05-14T01:10:01.274Z,10.67
2019-05-14T01:12:41.325Z,11.03
2019-05-14T01:15:14.023Z,8.93
2019-05-14T01:17:43.605Z,11.90
2019-05-14T01:20:13.444Z,10.17
2019-05-14T01:22:43.093Z,11.13
2019-05-14T01:25:13.393Z,9.23
2019-05-14T01:27:48.220Z,11.10
2019-05-14T01:30:21.422Z,8.30
2019-05-14T01:33:01.737Z,10.90
2019-05-14T01:35:31.157Z,10.60
2019-05-14T01:38:02.408Z,11.50
2019-05-14T01:40:38.505Z,9.30
2019-05-14T01:43:11.544Z,10.67
2019-05-14T01:45:43.099Z,10.97
2019-05-14T01:48:27.535Z,11.30
2019-05-14T01:50:52.640Z,10.57
2019-05-14T01:53:25.474Z,11.40
2019-05-14T01:55:56.838Z,8.47
2019-05-14T01:58:31.046Z,8.97
2019-05-14T02:01:03.518Z,8.30
2019-05-14T02:03:35.683Z,8.07
2019-05-14T02:06:07.629Z,9.60
2019-05-14T02:08:42.564Z,8.83
2019-05-14T02:11:18.700Z,8.27
2019-05-14T02:13:51.922Z,8.53
2019-05-14T02:16:25.538Z,8.43
2019-05-14T02:19:01.538Z,7.83
2019-05-14T02:21:31.724Z,8.27
2019-05-14T02:24:11.163Z,7.37
2019-05-14T02:26:35.966Z,7.03
2019-05-14T02:29:16.274Z,7.07
2019-05-14T02:31:50.419Z,10.40
2019-05-14T02:34:25.235Z,7.93
2019-05-14T02:37:10.779Z,5.70
2019-05-14T02:39:41.571Z,6.37
2019-05-14T02:42:19.862Z,6.80
2019-05-14T02:44:59.119Z,6.83
2019-05-14T02:47:40.820Z,7.00
2019-05-14T02:50:04.588Z,7.37
2019-05-14T02:52:40.108Z,8.17
2019-05-14T02:55:14.884Z,9.17
2019-05-14T02:57:50.473Z,6.90
2019-05-14T03:00:19.370Z,8.33
2019-05-14T03:02:51.538Z,6.67
2019-05-14T03:05:23.212Z,7.20
2019-05-14T03:07:59.723Z,7.80
2019-05-14T03:10:30.206Z,6.20
2019-05-14T03:12:59.117Z,10.30
2019-05-14T03:15:33.940Z,6.67
2019-05-14T03:18:08.999Z,10.47
2019-05-14T03:20:38.713Z,7.10
2019-05-14T03:23:14.086Z,6.97
2019-05-14T03:25:42.037Z,8.43
2019-05-14T03:28:19.719Z,6.20
2019-05-14T03:30:53.098Z,9.07
2019-05-14T03:33:24.732Z,8.33
2019-05-14T03:36:01.390Z,7.77
2019-05-14T03:38:41.350Z,8.53
2019-05-14T03:41:09.318Z,7.23
2019-05-14T03:43:43.817Z,7.67
2019-05-14T03:46:22.569Z,9.00
2019-05-14T03:49:03.254Z,9.83
2019-05-14T03:51:39.450Z,8.27
2019-05-14T03:54:13.283Z,7.50
2019-05-14T03:56:49.331Z,6.63
2019-05-14T03:59:30.025Z,6.63
2019-05-14T04:02:02.186Z,8.20
2019-05-14T04:04:39.073Z,8.87
2019-05-14T04:07:10.820Z,9.27
2019-05-14T04:09:49.659Z,6.73
2019-05-14T04:12:40.338Z,7.33
2019-05-14T04:15:39.113Z,8.10
2019-05-14T04:17:55.288Z,10.17
2019-05-14T04:20:33.706Z,8.03
2019-05-14T04:23:12.039Z,9.27
2019-05-14T04:25:49.740Z,7.93
2019-05-14T04:28:22.268Z,11.27
2019-05-14T04:31:02.201Z,9.50
2019-05-14T04:33:33.084Z,9.77
2019-05-14T04:36:22.347Z,13.50
2019-05-14T04:39:02.146Z,10.83
2019-05-14T04:41:31.891Z,14.17
2019-05-14T04:44:09.682Z,15.63
2019-05-14T04:46:39.623Z,16.63
2019-05-14T04:49:19.987Z,14.30
2019-05-14T04:51:59.319Z,11.77
2019-05-14T04:54:30.629Z,11.00
2019-05-14T04:57:10.223Z,7.50
2019-05-14T04:59:52.721Z,9.87
2019-05-14T05:02:32.770Z,11.20
2019-05-14T05:05:04.706Z,7.77
2019-05-14T05:07:39.394Z,7.97
2019-05-14T05:10:10.191Z,9.37
2019-05-14T05:12:39.618Z,7.17
2019-05-14T05:15:14.443Z,10.93
2019-05-14T05:17:58.907Z,7.87
2019-05-14T05:21:11.458Z,8.20
2019-05-14T05:23:44.494Z,7.77
2019-05-14T05:26:21.978Z,7.30
2019-05-14T05:29:07.097Z,6.80
2019-05-14T05:31:44.123Z,8.70
2019-05-14T05:34:41.985Z,6.17
2019-05-14T05:37:18.922Z,6.47
2019-05-14T05:39:58.350Z,7.67
2019-05-14T05:51:09.268Z,5.23
2019-05-14T05:53:51.426Z,6.37
2019-05-14T05:56:28.872Z,8.20
2019-05-14T05:59:02.771Z,5.50
2019-05-14T06:01:46.035Z,5.30
2019-05-14T06:04:15.046Z,5.30
2019-05-14T06:06:48.461Z,5.37
2019-05-14T06:09:24.705Z,4.80
2019-05-14T06:12:00.773Z,4.97
2019-05-14T06:14:31.956Z,7.07
2019-05-14T06:17:19.382Z,4.70
2019-05-14T06:19:49.511Z,4.83
2019-05-14T06:22:22.609Z,6.13
2019-05-14T06:25:01.606Z,5.77
2019-05-14T06:27:44.215Z,7.13
2019-05-14T06:30:24.037Z,4.33
2019-05-14T06:32:55.106Z,5.77
2019-05-14T06:35:33.246Z,5.03
2019-05-14T06:38:05.125Z,9.07
2019-05-14T06:40:39.576Z,6.17
2019-05-14T06:43:12.717Z,4.77
2019-05-14T06:45:58.506Z,6.00
2019-05-14T06:49:23.368Z,5.57
2019-05-14T06:51:20.288Z,5.03
2019-05-14T06:54:02.180Z,5.13
2019-05-14T06:56:40.326Z,5.30
2019-05-14T06:59:12.307Z,5.40
2019-05-14T07:01:48.773Z,7.77
2019-05-14T07:04:19.031Z,4.40
2019-05-14T07:06:50.875Z,4.97
2019-05-14T07:09:30.740Z,5.33
2019-05-14T07:12:49.805Z,4.83
2019-05-14T07:14:38.617Z,4.90
2019-05-14T07:17:10.633Z,6.97
2019-05-14T07:19:44.692Z,4.87
2019-05-14T07:22:16.254Z,5.87
2019-05-14T07:25:00.693Z,6.33
2019-05-14T07:27:28.362Z,5.63
2019-05-14T07:30:13.458Z,5.30
2019-05-14T07:32:58.823Z,5.23
2019-05-14T07:35:22.754Z,4.20
2019-05-14T07:37:56.326Z,5.80
2019-05-14T07:40:39.460Z,5.03
2019-05-14T07:43:16.320Z,4.33
2019-05-14T07:45:45.396Z,4.17
2019-05-14T07:48:15.240Z,5.90
2019-05-14T07:50:52.139Z,4.23
2019-05-14T07:53:36.322Z,5.13
2019-05-14T07:56:06.287Z,6.20
2019-05-14T07:58:51.243Z,6.73
2019-05-14T08:01:28.037Z,4.13
2019-05-14T08:04:01.095Z,6.90
2019-05-14T08:06:34.414Z,3.43
2019-05-14T08:09:08.653Z,3.50
2019-05-14T08:11:44.536Z,3.93
2019-05-14T08:14:12.939Z,4.07
2019-05-14T08:16:44.301Z,4.63
2019-05-14T08:19:24.162Z,3.63
2019-05-14T08:21:59.119Z,6.27
2019-05-14T08:24:30.123Z,3.30
2019-05-14T08:27:04.284Z,3.03
2019-05-14T08:29:40.018Z,4.30
2019-05-14T08:32:28.555Z,3.63
2019-05-14T08:35:13.646Z,5.17
2019-05-14T08:38:05.617Z,3.20
2019-05-14T08:40:45.344Z,4.27
2019-05-14T08:43:32.057Z,4.30
2019-05-14T08:46:19.149Z,7.77
2019-05-14T08:48:50.736Z,4.27
2019-05-14T08:51:34.835Z,4.30
2019-05-14T08:54:18.459Z,4.70
2019-05-14T08:56:51.704Z,4.53
2019-05-14T08:59:28.997Z,4.47
2019-05-14T09:02:16.249Z,4.40
2019-05-14T09:05:03.297Z,3.33
2019-05-14T09:07:24.395Z,3.70
2019-05-14T09:10:00.087Z,4.13
2019-05-14T09:12:33.600Z,4.17
2019-05-14T09:15:11.194Z,4.57
2019-05-14T09:17:41.535Z,4.80
2019-05-14T09:20:18.715Z,5.10
2019-05-14T09:22:50.659Z,2.43
2019-05-14T09:25:22.910Z,2.40
2019-05-14T09:27:58.421Z,2.47
2019-05-14T09:30:30.473Z,2.60
2019-05-14T09:33:08.569Z,2.63
2019-05-14T09:35:39.378Z,4.30
2019-05-14T09:38:18.648Z,2.70
2019-05-14T09:41:05.668Z,3.80
2019-05-14T09:43:21.737Z,3.27
2019-05-14T09:45:53.137Z,3.83
2019-05-14T09:48:25.964Z,2.90
2019-05-14T09:50:55.639Z,2.67
2019-05-14T09:53:25.662Z,1.90
2019-05-14T09:56:05.655Z,3.60
2019-05-14T09:58:35.603Z,3.83
2019-05-14T10:01:10.897Z,2.20
2019-05-14T10:03:42.746Z,2.90
2019-05-14T10:06:15.133Z,1.80
2019-05-14T10:08:44.722Z,2.43
2019-05-14T10:11:29.723Z,2.13
2019-05-14T10:13:51.647Z,1.77
2019-05-14T10:16:29.108Z,9.03
2019-05-14T10:19:02.276Z,2.53
2019-05-14T10:21:38.758Z,3.47
2019-05-14T10:24:09.116Z,2.43
2019-05-14T10:26:39.587Z,3.50
2019-05-14T10:29:22.315Z,2.70
2019-05-14T10:31:52.265Z,2.47
2019-05-14T10:34:25.249Z,1.80
2019-05-14T10:36:54.858Z,3.03
2019-05-14T10:39:35.378Z,3.83
2019-05-14T10:42:09.109Z,3.77
2019-05-14T10:44:42.254Z,3.53
2019-05-14T10:47:18.661Z,3.77
2019-05-14T10:49:44.869Z,2.90
2019-05-14T10:52:21.878Z,2.27
2019-05-14T10:55:00.820Z,3.70
2019-05-14T10:57:35.877Z,4.20
2019-05-14T11:00:11.320Z,2.90
2019-05-14T11:02:49.667Z,2.87
2019-05-14T11:05:24.258Z,4.47
2019-05-14T11:07:55.450Z,5.47
2019-05-14T11:10:29.974Z,4.00
2019-05-14T11:13:08.930Z,3.33
2019-05-14T11:15:53.547Z,4.83
2019-05-14T11:18:30.094Z,5.60
2019-05-14T11:21:18.097Z,3.90
2019-05-14T11:23:32.258Z,3.90
2019-05-14T11:26:15.499Z,5.53
2019-05-14T11:28:39.797Z,4.50
2019-05-14T11:31:23.547Z,5.00
2019-05-14T11:34:02.691Z,3.10
2019-05-14T11:36:38.674Z,3.63
2019-05-14T11:39:12.401Z,3.80
2019-05-14T11:41:58.994Z,3.43
2019-05-14T11:44:33.365Z,2.77
2019-05-14T11:47:08.911Z,5.53
2019-05-14T11:49:49.465Z,4.70
2019-05-14T11:52:18.471Z,4.67
2019-05-14T11:54:51.417Z,4.97
2019-05-14T11:57:48.494Z,5.33
2019-05-14T12:00:25.875Z,5.93
2019-05-14T12:03:04.704Z,5.00
2019-05-14T12:05:39.019Z,5.03
2019-05-14T12:08:09.799Z,3.07
2019-05-14T12:11:03.443Z,5.43
2019-05-14T12:13:48.978Z,4.37
2019-05-14T12:16:28.916Z,6.30
2019-05-14T12:18:59.143Z,4.27
2019-05-14T12:21:35.069Z,4.63
2019-05-14T12:24:06.265Z,3.83
2019-05-14T12:26:38.658Z,4.30
2019-05-14T12:29:12.292Z,3.27
2019-05-14T12:31:50.559Z,2.87
2019-05-14T12:34:18.504Z,4.93
2019-05-14T12:36:49.339Z,4.50
2019-05-14T12:39:21.645Z,3.33
2019-05-14T12:41:55.025Z,3.57
2019-05-14T12:44:29.076Z,2.50
2019-05-14T12:47:01.732Z,2.47
2019-05-14T12:49:35.576Z,2.43
2019-05-14T12:52:17.885Z,3.70
2019-05-14T12:54:38.867Z,2.33
2019-05-14T12:57:14.821Z,2.90
2019-05-14T12:59:43.745Z,4.60
2019-05-14T13:02:15.452Z,6.07
2019-05-14T13:04:48.494Z,7.13
2019-05-14T13:07:19.287Z,6.93
2019-05-14T13:09:49.316Z,7.23
2019-05-14T13:12:23.266Z,6.00
2019-05-14T13:14:57.898Z,4.73
2019-05-14T13:17:38.575Z,4.37
2019-05-14T13:20:13.204Z,6.13
2019-05-14T13:22:45.325Z,4.43
2019-05-14T13:25:12.188Z,5.47
2019-05-14T13:27:42.301Z,3.70
2019-05-14T13:30:12.190Z,3.20
2019-05-14T13:32:43.424Z,4.57
2019-05-14T13:35:19.352Z,4.67
2019-05-14T13:37:49.122Z,4.97
2019-05-14T13:40:22.973Z,6.23
2019-05-14T13:42:52.600Z,6.50
2019-05-14T13:45:25.750Z,5.90
2019-05-14T13:47:59.062Z,6.33
2019-05-14T13:50:35.051Z,4.00
2019-05-14T13:53:09.294Z,4.80
2019-05-14T13:55:46.619Z,5.17
2019-05-14T13:58:11.038Z,3.87
2019-05-14T14:00:40.769Z,5.53
2019-05-14T14:03:11.407Z,5.80
2019-05-14T14:05:42.708Z,5.23
2019-05-14T14:08:13.811Z,5.70
2019-05-14T14:10:51.689Z,6.83
2019-05-14T14:13:20.075Z,5.90
2019-05-14T14:15:50.530Z,5.83
2019-05-14T14:18:29.189Z,5.83
2019-05-14T14:20:59.564Z,6.63
2019-05-14T14:23:39.069Z,5.73
2019-05-14T14:26:11.364Z,6.30
2019-05-14T14:28:41.009Z,5.40
2019-05-14T14:31:12.752Z,6.97
2019-05-14T14:33:43.786Z,6.83
2019-05-14T14:36:22.662Z,7.43
2019-05-14T14:38:59.806Z,6.60
2019-05-14T14:41:32.484Z,6.23
2019-05-14T14:44:10.816Z,8.10
2019-05-14T14:46:41.498Z,6.73
2019-05-14T14:49:13.365Z,6.70
2019-05-14T14:51:45.034Z,7.57
2019-05-14T14:54:16.224Z,7.77
2019-05-14T14:57:08.416Z,8.50
2019-05-14T14:59:18.934Z,8.23
2019-05-14T15:01:50.861Z,9.40
2019-05-14T15:04:22.735Z,9.10
2019-05-14T15:06:52.242Z,9.17
2019-05-14T15:09:23.639Z,7.00
2019-05-14T15:11:55.766Z,11.03
2019-05-14T15:14:29.739Z,7.70
2019-05-14T15:16:58.121Z,27.67
2019-05-14T15:19:29.760Z,7.63
2019-05-14T15:22:04.471Z,7.67
2019-05-14T15:24:30.058Z,11.27
2019-05-14T15:27:07.464Z,8.20
2019-05-14T15:29:31.987Z,9.40
2019-05-14T15:32:04.754Z,8.20
2019-05-14T15:34:34.427Z,10.87
2019-05-14T15:37:08.861Z,8.47
2019-05-14T15:39:39.084Z,7.67
2019-05-14T15:42:13.764Z,9.33
2019-05-14T15:44:52.072Z,9.40
2019-05-14T15:47:15.601Z,9.73
2019-05-14T15:49:48.838Z,9.23
2019-05-14T15:52:23.908Z,12.70
2019-05-14T15:54:56.798Z,9.30
2019-05-14T15:57:29.046Z,11.43
2019-05-14T16:00:01.225Z,10.97
2019-05-14T16:02:35.180Z,11.50
2019-05-14T16:05:09.974Z,12.23
2019-05-14T16:07:39.551Z,10.40
2019-05-14T16:10:11.323Z,10.67
2019-05-14T16:12:43.290Z,11.37
2019-05-14T16:15:14.289Z,11.20
2019-05-14T16:18:07.902Z,13.60
2019-05-14T16:20:33.087Z,11.43
2019-05-14T16:23:02.702Z,12.93
2019-05-14T16:25:37.999Z,18.90
2019-05-14T16:28:13.161Z,13.33
2019-05-14T16:30:50.205Z,12.47
2019-05-14T16:33:29.423Z,13.17
2019-05-14T16:36:12.187Z,19.40
2019-05-14T16:38:44.702Z,15.97
2019-05-14T16:41:05.778Z,14.13
2019-05-14T16:43:49.368Z,18.23
2019-05-14T16:46:20.441Z,18.10
2019-05-14T16:48:58.685Z,18.17
2019-05-14T16:51:33.367Z,23.67
2019-05-14T16:54:10.038Z,23.03
2019-05-14T16:56:43.922Z,25.37
2019-05-14T16:59:09.309Z,30.67
2019-05-14T17:01:38.999Z,36.33
2019-05-14T17:04:09.798Z,50.37
2019-05-14T17:06:44.431Z,61.40
2019-05-14T17:09:21.360Z,42.63
2019-05-14T17:11:48.952Z,36.03
2019-05-14T17:14:22.353Z,32.57
2019-05-14T17:16:56.062Z,26.30
2019-05-14T17:24:24.472Z,29.27
2019-05-14T17:28:24.870Z,23.87
2019-05-14T17:30:03.368Z,18.83
2019-05-14T17:32:39.113Z,21.73
2019-05-14T17:35:42.558Z,20.43
2019-05-14T17:38:19.825Z,19.47
2019-05-14T17:41:00.528Z,25.53
2019-05-14T17:43:52.373Z,22.63
2019-05-14T17:46:31.318Z,21.23
2019-05-14T17:52:45.780Z,26.03
2019-05-14T17:55:22.447Z,20.13
2019-05-14T17:58:12.980Z,22.63
2019-05-14T18:00:38.136Z,19.93
2019-05-14T18:03:11.835Z,23.73
2019-05-14T18:05:41.458Z,27.97
2019-05-14T18:08:11.089Z,25.30
2019-05-14T18:10:42.575Z,21.53
2019-05-14T18:13:18.401Z,24.40
2019-05-14T18:15:51.760Z,28.93
2019-05-14T18:18:23.491Z,24.67
2019-05-14T18:20:53.201Z,36.30
2019-05-14T18:23:22.907Z,25.77
2019-05-14T18:26:04.993Z,26.23
2019-05-14T18:28:28.809Z,25.57
2019-05-14T18:31:01.065Z,26.63
2019-05-14T18:33:32.237Z,30.90
2019-05-14T18:36:03.581Z,25.93
2019-05-14T18:38:33.185Z,29.03
2019-05-14T18:41:08.259Z,31.37
2019-05-14T18:43:36.886Z,24.53
2019-05-14T18:46:10.434Z,29.17
2019-05-14T18:48:51.132Z,26.30
2019-05-14T18:51:28.635Z,34.67
2019-05-14T18:54:00.614Z,27.30
2019-05-14T18:56:30.330Z,69.37
2019-05-14T18:59:02.240Z,32.97
2019-05-14T19:01:33.194Z,72.20
2019-05-14T19:04:02.808Z,30.60
2019-05-14T19:06:32.314Z,32.70
2019-05-14T19:09:01.898Z,23.23
2019-05-14T19:11:31.403Z,26.03
2019-05-14T19:14:01.031Z,23.17
2019-05-14T19:16:30.523Z,27.33
2019-05-14T19:19:00.238Z,30.40
2019-05-14T19:21:33.404Z,23.57
2019-05-14T19:24:05.928Z,22.43
2019-05-14T19:26:40.308Z,27.37
2019-05-14T19:29:08.695Z,27.97
2019-05-14T19:31:38.659Z,25.10
2019-05-14T19:34:22.044Z,31.63
2019-05-14T19:36:44.887Z,27.17
2019-05-14T19:39:18.924Z,26.07
2019-05-14T19:41:49.901Z,24.10
2019-05-14T19:44:23.726Z,28.83
2019-05-14T19:46:56.342Z,26.40
2019-05-14T19:49:28.764Z,26.10
2019-05-14T19:51:58.813Z,24.50
2019-05-14T19:54:31.854Z,22.47
2019-05-14T19:57:01.517Z,24.70
2019-05-14T19:59:41.111Z,20.13
2019-05-14T20:02:09.481Z,24.53
2019-05-14T20:04:39.160Z,26.67
2019-05-14T20:07:10.889Z,31.23
2019-05-14T20:09:44.355Z,22.07
2019-05-14T20:12:13.922Z,24.57
2019-05-14T20:14:45.625Z,25.10
2019-05-14T20:17:19.326Z,22.13
2019-05-14T20:19:49.697Z,27.97
2019-05-14T20:22:21.633Z,21.97
2019-05-14T20:24:52.947Z,21.80
2019-05-14T20:27:25.367Z,23.63
2019-05-14T20:29:58.086Z,21.17
2019-05-14T20:32:30.130Z,23.10
2019-05-14T20:35:01.169Z,21.77
2019-05-14T20:37:30.831Z,22.70
2019-05-14T20:40:04.068Z,25.00
2019-05-14T20:42:39.248Z,24.93
2019-05-14T20:45:10.683Z,22.17
2019-05-14T20:47:48.004Z,25.00
2019-05-14T20:50:18.111Z,28.07
2019-05-14T20:52:48.435Z,26.63
2019-05-14T20:55:19.663Z,26.03
2019-05-14T20:57:54.877Z,25.17
2019-05-14T21:00:24.814Z,21.57
2019-05-14T21:02:56.017Z,28.13
2019-05-14T21:05:28.687Z,24.03
2019-05-14T21:08:13.366Z,30.93
2019-05-14T21:10:31.262Z,29.50
2019-05-14T21:13:00.860Z,27.13
2019-05-14T21:15:38.955Z,23.90
2019-05-14T21:18:03.333Z,29.57
2019-05-14T21:20:35.145Z,29.80
2019-05-14T21:23:08.974Z,27.80
2019-05-14T21:25:48.187Z,28.20
2019-05-14T21:28:11.480Z,24.53
2019-05-14T21:30:41.040Z,31.90
2019-05-14T21:33:12.649Z,31.33
2019-05-14T21:35:45.279Z,27.13
2019-05-14T21:38:19.184Z,29.47
2019-05-14T21:40:50.630Z,29.23
2019-05-14T21:43:21.916Z,27.57
2019-05-14T21:45:51.558Z,29.13
2019-05-14T21:48:22.887Z,27.60
2019-05-14T21:50:52.369Z,27.50
2019-05-14T21:53:24.025Z,24.63
2019-05-14T21:55:54.783Z,22.17
2019-05-14T21:58:29.253Z,29.40
2019-05-14T22:00:59.737Z,25.27
2019-05-14T22:03:29.338Z,25.37
2019-05-14T22:05:59.341Z,29.70
2019-05-14T22:08:30.358Z,25.43
2019-05-14T22:11:00.397Z,31.93
2019-05-14T22:13:32.339Z,33.30
2019-05-14T22:16:01.823Z,28.20
2019-05-14T22:18:31.299Z,29.40
2019-05-14T22:21:00.833Z,28.53
2019-05-14T22:23:30.337Z,33.37
2019-05-14T22:25:59.791Z,30.23
2019-05-14T22:28:29.290Z,34.90
2019-05-14T22:30:58.851Z,30.87
2019-05-14T22:33:28.502Z,34.30
2019-05-14T22:35:58.183Z,28.87
2019-05-14T22:38:29.332Z,27.73
2019-05-14T22:40:59.302Z,30.13
2019-05-14T22:43:28.948Z,37.00
2019-05-14T22:45:59.088Z,31.43
2019-05-14T22:48:28.726Z,30.47
2019-05-14T22:50:59.278Z,31.00
2019-05-14T22:53:30.346Z,32.77
2019-05-14T22:55:59.940Z,36.40
2019-05-14T22:58:29.402Z,33.43
2019-05-14T23:01:13.639Z,36.90
2019-05-14T23:03:30.136Z,38.83
2019-05-14T23:05:59.649Z,38.33
2019-05-14T23:08:29.113Z,40.30
2019-05-14T23:10:58.966Z,38.57
2019-05-14T23:13:30.587Z,35.63
2019-05-14T23:16:08.232Z,42.20
2019-05-14T23:18:37.837Z,34.10
2019-05-14T23:21:08.856Z,33.53
2019-05-14T23:23:39.201Z,33.53
2019-05-14T23:26:08.856Z,37.90
2019-05-14T23:28:45.293Z,40.80
2019-05-14T23:31:09.702Z,31.90
2019-05-14T23:33:39.208Z,37.87
2019-05-14T23:36:08.952Z,32.60
2019-05-14T23:38:39.734Z,29.50
2019-05-14T23:41:09.235Z,33.17
2019-05-14T23:43:41.874Z,36.50
2019-05-14T23:46:18.286Z,35.23
2019-05-14T23:48:48.447Z,31.63
2019-05-14T23:51:28.844Z,34.83
2019-05-14T23:53:58.128Z,36.37
2019-05-14T23:56:30.038Z,30.60
2019-05-14T23:59:02.169Z,33.10
